createdAt,value
2023-08-08T00:04:38.715Z,71.34
2023-08-08T00:14:41.723Z,71.30
2023-08-08T00:24:44.733Z,71.46
2023-08-08T00:34:47.799Z,70.75
2023-08-08T00:44:50.853Z,70.42
2023-08-08T00:54:54.115Z,70.36
2023-08-08T01:04:58.206Z,70.54
2023-08-08T01:15:01.836Z,70.65
2023-08-08T01:25:07.442Z,71.12
2023-08-08T01:35:11.977Z,71.45
2023-08-08T01:45:15.851Z,72.12
2023-08-08T01:55:19.356Z,72.30
2023-08-08T02:05:22.736Z,72.69
2023-08-08T02:15:25.862Z,72.39
2023-08-08T02:25:28.951Z,72.65
2023-08-08T02:35:32.010Z,73.05
2023-08-08T02:45:35.216Z,72.80
2023-08-08T02:55:38.433Z,72.58
2023-08-08T03:05:41.783Z,72.69
2023-08-08T03:15:44.917Z,72.22
2023-08-08T03:25:48.200Z,71.95
2023-08-08T03:35:51.693Z,71.95
2023-08-08T03:45:55.204Z,72.12
2023-08-08T03:55:58.284Z,72.29
2023-08-08T04:06:02.685Z,72.02
2023-08-08T04:16:05.878Z,72.15
2023-08-08T04:26:08.916Z,72.13
2023-08-08T04:36:12.430Z,72.04
2023-08-08T04:46:15.514Z,71.46
2023-08-08T04:56:18.659Z,70.71
2023-08-08T05:06:21.683Z,70.47
2023-08-08T05:16:25.160Z,70.19
2023-08-08T05:26:28.335Z,68.92
2023-08-08T05:36:31.310Z,68.44
2023-08-08T05:46:34.535Z,68.64
2023-08-08T05:56:38.396Z,67.99
2023-08-08T06:06:41.903Z,68.23
2023-08-08T06:16:44.930Z,67.82
2023-08-08T06:26:47.952Z,65.79
2023-08-08T06:36:50.982Z,65.80
2023-08-08T06:46:54.039Z,64.76
2023-08-08T06:56:58.880Z,63.22
2023-08-08T07:07:03.924Z,62.27
2023-08-08T07:17:07.256Z,59.39
2023-08-08T07:27:10.287Z,58.93
2023-08-08T07:37:14.740Z,57.64
2023-08-08T07:47:17.798Z,56.73
2023-08-08T07:57:20.763Z,57.88
2023-08-08T08:07:24.324Z,55.66
2023-08-08T08:17:28.409Z,53.28
2023-08-08T08:27:31.668Z,50.88
2023-08-08T08:37:35.577Z,50.72
2023-08-08T08:47:42.174Z,50.83
2023-08-08T08:57:46.452Z,50.89
2023-08-08T09:07:49.463Z,50.94
2023-08-08T09:17:53.115Z,48.49
2023-08-08T09:27:56.937Z,47.86
2023-08-08T09:38:00.014Z,48.42
2023-08-08T09:48:03.106Z,48.03
2023-08-08T09:58:08.703Z,49.89
2023-08-08T10:08:12.193Z,47.61
2023-08-08T10:18:28.626Z,48.22
2023-08-08T10:28:34.450Z,50.76
2023-08-08T10:38:45.532Z,50.88
2023-08-08T10:48:52.999Z,50.41
2023-08-08T10:58:55.946Z,49.49
2023-08-08T11:08:59.287Z,49.46
2023-08-08T11:19:02.923Z,51.98
2023-08-08T11:29:06.883Z,50.75
2023-08-08T11:39:11.124Z,51.09
2023-08-08T11:49:17.630Z,50.94
2023-08-08T11:59:21.557Z,50.49
2023-08-08T12:09:29.120Z,51.17
2023-08-08T12:19:32.192Z,51.40
2023-08-08T12:29:35.297Z,50.59
2023-08-08T12:39:38.299Z,48.82
2023-08-08T12:49:41.238Z,47.14
2023-08-08T12:59:44.264Z,46.45
2023-08-08T13:09:47.363Z,46.04
2023-08-08T13:19:50.326Z,51.04
2023-08-08T13:29:53.471Z,47.95
2023-08-08T13:39:56.450Z,49.36
2023-08-08T13:49:59.440Z,55.91
2023-08-08T14:00:03.505Z,54.59
2023-08-08T14:10:11.620Z,48.28
2023-08-08T14:20:14.929Z,47.37
2023-08-08T14:30:18.214Z,48.22
2023-08-08T14:40:21.184Z,47.90
2023-08-08T14:50:24.137Z,44.09
2023-08-08T15:00:27.318Z,44.25
2023-08-08T15:10:30.357Z,48.52
2023-08-08T15:20:33.369Z,38.52
2023-08-08T15:30:36.404Z,45.99
2023-08-08T15:40:41.442Z,40.88
2023-08-08T15:50:44.924Z,41.30
2023-08-08T16:00:47.979Z,41.57
2023-08-08T16:10:51.045Z,46.24
2023-08-08T16:20:54.043Z,41.92
2023-08-08T16:30:58.509Z,43.74
2023-08-08T16:41:01.621Z,54.94
2023-08-08T16:51:04.711Z,53.37
2023-08-08T17:01:08.074Z,67.47
2023-08-08T17:11:11.384Z,69.84
2023-08-08T17:21:14.501Z,71.97
2023-08-08T17:31:18.136Z,71.20
2023-08-08T17:41:21.094Z,74.64
2023-08-08T17:51:24.103Z,73.79
2023-08-08T18:01:27.337Z,74.87
2023-08-08T18:11:30.341Z,65.84
2023-08-08T18:21:33.410Z,63.73
2023-08-08T18:31:36.384Z,75.77
2023-08-08T18:41:39.388Z,79.34
2023-08-08T18:51:42.331Z,79.72
2023-08-08T19:01:45.432Z,77.32
2023-08-08T19:11:48.427Z,71.97
2023-08-08T19:21:53.406Z,79.89
2023-08-08T19:31:56.376Z,84.27
2023-08-08T19:42:00.389Z,83.88
2023-08-08T19:52:03.903Z,79.58
2023-08-08T20:02:07.445Z,79.12
2023-08-08T20:12:10.462Z,79.39
2023-08-08T20:22:13.403Z,79.65
2023-08-08T20:32:16.432Z,79.67
2023-08-08T20:42:19.408Z,85.65
2023-08-08T20:52:22.977Z,85.20
2023-08-08T21:02:26.159Z,81.16
2023-08-08T21:12:29.200Z,80.08
2023-08-08T21:22:32.252Z,79.86
2023-08-08T21:32:35.473Z,79.74
2023-08-08T21:42:39.041Z,79.19
2023-08-08T21:52:42.034Z,79.01
2023-08-08T22:02:45.078Z,78.64
2023-08-08T22:12:54.032Z,78.41
2023-08-08T22:23:02.966Z,78.43
2023-08-08T22:33:15.642Z,78.09
2023-08-08T22:43:18.598Z,77.27
2023-08-08T22:53:21.651Z,76.92
2023-08-08T23:03:24.703Z,76.33
2023-08-08T23:13:27.810Z,76.03
2023-08-08T23:23:30.810Z,75.90
2023-08-08T23:33:33.830Z,76.27
2023-08-08T23:43:36.801Z,76.38
2023-08-08T23:53:39.867Z,76.32
